sensor_id;sensor_type;location;lat;lon;timestamp;P1;durP1;ratioP1;P2;durP2;ratioP2
5428;SDS011;2737;52.386;9.980;2023-12-07T00:01:32;44.03;;;20.90;;
5428;SDS011;2737;52.386;9.980;2023-12-07T00:04:00;47.57;;;22.40;;
5428;SDS011;2737;52.386;9.980;2023-12-07T00:06:29;45.67;;;22.00;;
5428;SDS011;2737;52.386;9.980;2023-12-07T00:08:56;42.03;;;21.70;;
5428;SDS011;2737;52.386;9.980;2023-12-07T00:11:25;46.07;;;22.30;;
5428;SDS011;2737;52.386;9.980;2023-12-07T00:13:52;43.67;;;22.47;;
5428;SDS011;2737;52.386;9.980;2023-12-07T00:16:19;50.20;;;23.37;;
5428;SDS011;2737;52.386;9.980;2023-12-07T00:18:46;45.63;;;23.23;;
5428;SDS011;2737;52.386;9.980;2023-12-07T00:21:13;45.83;;;22.40;;
5428;SDS011;2737;52.386;9.980;2023-12-07T00:23:42;39.87;;;20.13;;
5428;SDS011;2737;52.386;9.980;2023-12-07T00:26:09;44.90;;;21.87;;
5428;SDS011;2737;52.386;9.980;2023-12-07T00:28:36;43.10;;;20.53;;
5428;SDS011;2737;52.386;9.980;2023-12-07T00:31:03;42.93;;;19.80;;
5428;SDS011;2737;52.386;9.980;2023-12-07T00:33:30;39.83;;;20.43;;
5428;SDS011;2737;52.386;9.980;2023-12-07T00:35:57;39.33;;;20.40;;
5428;SDS011;2737;52.386;9.980;2023-12-07T00:38:24;37.33;;;20.53;;
5428;SDS011;2737;52.386;9.980;2023-12-07T00:40:52;36.40;;;19.90;;
5428;SDS011;2737;52.386;9.980;2023-12-07T00:43:19;41.90;;;20.87;;
5428;SDS011;2737;52.386;9.980;2023-12-07T00:45:46;41.70;;;21.50;;
5428;SDS011;2737;52.386;9.980;2023-12-07T00:48:13;44.30;;;20.20;;
5428;SDS011;2737;52.386;9.980;2023-12-07T00:50:40;40.70;;;22.10;;
5428;SDS011;2737;52.386;9.980;2023-12-07T00:53:07;40.77;;;19.90;;
5428;SDS011;2737;52.386;9.980;2023-12-07T00:55:34;38.43;;;19.27;;
5428;SDS011;2737;52.386;9.980;2023-12-07T00:58:03;40.63;;;19.73;;
5428;SDS011;2737;52.386;9.980;2023-12-07T01:00:30;38.80;;;20.20;;
5428;SDS011;2737;52.386;9.980;2023-12-07T01:02:57;44.67;;;21.10;;
5428;SDS011;2737;52.386;9.980;2023-12-07T01:05:24;38.67;;;18.57;;
5428;SDS011;2737;52.386;9.980;2023-12-07T01:07:51;35.03;;;19.10;;
5428;SDS011;2737;52.386;9.980;2023-12-07T01:10:18;43.67;;;20.63;;
5428;SDS011;2737;52.386;9.980;2023-12-07T01:12:45;35.77;;;20.27;;
5428;SDS011;2737;52.386;9.980;2023-12-07T01:15:13;37.13;;;20.10;;
5428;SDS011;2737;52.386;9.980;2023-12-07T01:17:41;35.67;;;19.90;;
5428;SDS011;2737;52.386;9.980;2023-12-07T01:20:09;40.97;;;20.73;;
5428;SDS011;2737;52.386;9.980;2023-12-07T01:22:38;40.40;;;19.73;;
5428;SDS011;2737;52.386;9.980;2023-12-07T01:25:06;43.43;;;20.77;;
5428;SDS011;2737;52.386;9.980;2023-12-07T01:27:33;38.37;;;19.53;;
5428;SDS011;2737;52.386;9.980;2023-12-07T01:30:01;40.80;;;19.17;;
5428;SDS011;2737;52.386;9.980;2023-12-07T01:32:30;32.50;;;18.53;;
5428;SDS011;2737;52.386;9.980;2023-12-07T01:34:57;41.50;;;19.33;;
5428;SDS011;2737;52.386;9.980;2023-12-07T01:37:24;33.40;;;17.93;;
5428;SDS011;2737;52.386;9.980;2023-12-07T01:39:52;38.40;;;19.90;;
5428;SDS011;2737;52.386;9.980;2023-12-07T01:42:19;42.83;;;19.87;;
5428;SDS011;2737;52.386;9.980;2023-12-07T01:44:46;42.17;;;20.20;;
5428;SDS011;2737;52.386;9.980;2023-12-07T01:47:13;39.33;;;19.97;;
5428;SDS011;2737;52.386;9.980;2023-12-07T01:49:42;38.57;;;20.57;;
5428;SDS011;2737;52.386;9.980;2023-12-07T01:52:10;37.80;;;19.20;;
5428;SDS011;2737;52.386;9.980;2023-12-07T01:54:38;36.10;;;18.40;;
5428;SDS011;2737;52.386;9.980;2023-12-07T01:57:05;43.83;;;20.57;;
5428;SDS011;2737;52.386;9.980;2023-12-07T01:59:32;39.87;;;20.40;;
5428;SDS011;2737;52.386;9.980;2023-12-07T02:02:00;40.37;;;20.37;;
5428;SDS011;2737;52.386;9.980;2023-12-07T02:04:27;41.50;;;20.63;;
5428;SDS011;2737;52.386;9.980;2023-12-07T02:06:57;49.03;;;19.47;;
5428;SDS011;2737;52.386;9.980;2023-12-07T02:09:27;45.53;;;19.83;;
5428;SDS011;2737;52.386;9.980;2023-12-07T02:11:55;38.73;;;19.20;;
5428;SDS011;2737;52.386;9.980;2023-12-07T02:14:23;43.57;;;19.87;;
5428;SDS011;2737;52.386;9.980;2023-12-07T02:16:51;40.70;;;20.50;;
5428;SDS011;2737;52.386;9.980;2023-12-07T02:19:27;36.10;;;19.93;;
5428;SDS011;2737;52.386;9.980;2023-12-07T02:22:16;39.63;;;18.73;;
5428;SDS011;2737;52.386;9.980;2023-12-07T02:24:48;37.20;;;19.10;;
5428;SDS011;2737;52.386;9.980;2023-12-07T02:27:36;37.47;;;18.80;;
5428;SDS011;2737;52.386;9.980;2023-12-07T02:30:04;34.40;;;19.13;;
5428;SDS011;2737;52.386;9.980;2023-12-07T02:32:32;38.13;;;18.57;;
5428;SDS011;2737;52.386;9.980;2023-12-07T02:35:00;39.17;;;19.60;;
5428;SDS011;2737;52.386;9.980;2023-12-07T02:37:27;42.80;;;19.00;;
5428;SDS011;2737;52.386;9.980;2023-12-07T02:39:56;31.83;;;17.57;;
5428;SDS011;2737;52.386;9.980;2023-12-07T02:42:24;45.77;;;18.80;;
5428;SDS011;2737;52.386;9.980;2023-12-07T02:44:54;33.50;;;18.20;;
5428;SDS011;2737;52.386;9.980;2023-12-07T02:47:21;38.53;;;19.33;;
5428;SDS011;2737;52.386;9.980;2023-12-07T02:49:48;32.80;;;17.10;;
5428;SDS011;2737;52.386;9.980;2023-12-07T02:52:15;35.20;;;18.50;;
5428;SDS011;2737;52.386;9.980;2023-12-07T02:54:42;30.00;;;17.03;;
5428;SDS011;2737;52.386;9.980;2023-12-07T02:57:09;34.97;;;18.57;;
5428;SDS011;2737;52.386;9.980;2023-12-07T02:59:36;31.73;;;16.53;;
5428;SDS011;2737;52.386;9.980;2023-12-07T03:02:04;46.33;;;18.47;;
5428;SDS011;2737;52.386;9.980;2023-12-07T03:04:32;35.47;;;18.30;;
5428;SDS011;2737;52.386;9.980;2023-12-07T03:06:59;38.80;;;19.37;;
5428;SDS011;2737;52.386;9.980;2023-12-07T03:09:26;34.10;;;18.50;;
5428;SDS011;2737;52.386;9.980;2023-12-07T03:11:53;32.87;;;17.27;;
5428;SDS011;2737;52.386;9.980;2023-12-07T03:14:20;33.73;;;18.50;;
5428;SDS011;2737;52.386;9.980;2023-12-07T03:16:47;36.80;;;19.23;;
5428;SDS011;2737;52.386;9.980;2023-12-07T03:19:15;33.60;;;18.70;;
5428;SDS011;2737;52.386;9.980;2023-12-07T03:21:42;35.23;;;18.30;;
5428;SDS011;2737;52.386;9.980;2023-12-07T03:24:09;33.43;;;17.07;;
5428;SDS011;2737;52.386;9.980;2023-12-07T03:26:36;38.83;;;18.87;;
5428;SDS011;2737;52.386;9.980;2023-12-07T03:29:04;35.97;;;16.73;;
5428;SDS011;2737;52.386;9.980;2023-12-07T03:31:31;32.30;;;16.40;;
5428;SDS011;2737;52.386;9.980;2023-12-07T03:33:58;31.53;;;17.00;;
5428;SDS011;2737;52.386;9.980;2023-12-07T03:36:27;31.30;;;17.50;;
5428;SDS011;2737;52.386;9.980;2023-12-07T03:38:54;39.57;;;17.90;;
5428;SDS011;2737;52.386;9.980;2023-12-07T03:41:21;34.50;;;19.00;;
5428;SDS011;2737;52.386;9.980;2023-12-07T03:43:48;35.87;;;18.70;;
5428;SDS011;2737;52.386;9.980;2023-12-07T03:46:16;32.40;;;16.97;;
5428;SDS011;2737;52.386;9.980;2023-12-07T03:48:43;31.87;;;17.23;;
5428;SDS011;2737;52.386;9.980;2023-12-07T03:51:12;36.17;;;17.73;;
5428;SDS011;2737;52.386;9.980;2023-12-07T03:53:42;33.07;;;18.07;;
5428;SDS011;2737;52.386;9.980;2023-12-07T03:56:09;34.17;;;17.43;;
5428;SDS011;2737;52.386;9.980;2023-12-07T03:58:36;36.50;;;16.43;;
5428;SDS011;2737;52.386;9.980;2023-12-07T04:01:04;37.57;;;19.10;;
5428;SDS011;2737;52.386;9.980;2023-12-07T04:03:31;34.97;;;19.20;;
5428;SDS011;2737;52.386;9.980;2023-12-07T04:05:58;32.43;;;17.77;;
5428;SDS011;2737;52.386;9.980;2023-12-07T04:08:25;31.83;;;16.47;;
5428;SDS011;2737;52.386;9.980;2023-12-07T04:10:54;30.30;;;15.90;;
5428;SDS011;2737;52.386;9.980;2023-12-07T04:13:21;31.73;;;16.07;;
5428;SDS011;2737;52.386;9.980;2023-12-07T04:15:48;27.77;;;16.07;;
5428;SDS011;2737;52.386;9.980;2023-12-07T04:18:15;35.77;;;16.27;;
5428;SDS011;2737;52.386;9.980;2023-12-07T04:20:42;29.17;;;15.80;;
5428;SDS011;2737;52.386;9.980;2023-12-07T04:23:09;34.80;;;17.80;;
5428;SDS011;2737;52.386;9.980;2023-12-07T04:25:36;31.03;;;16.47;;
5428;SDS011;2737;52.386;9.980;2023-12-07T04:28:04;34.00;;;18.90;;
5428;SDS011;2737;52.386;9.980;2023-12-07T04:30:31;28.67;;;16.23;;
5428;SDS011;2737;52.386;9.980;2023-12-07T04:32:58;34.07;;;15.40;;
5428;SDS011;2737;52.386;9.980;2023-12-07T04:35:25;29.27;;;15.77;;
5428;SDS011;2737;52.386;9.980;2023-12-07T04:37:53;29.13;;;17.43;;
5428;SDS011;2737;52.386;9.980;2023-12-07T04:40:20;31.40;;;15.87;;
5428;SDS011;2737;52.386;9.980;2023-12-07T04:42:47;29.70;;;16.40;;
5428;SDS011;2737;52.386;9.980;2023-12-07T04:45:15;26.23;;;15.63;;
5428;SDS011;2737;52.386;9.980;2023-12-07T04:47:43;32.33;;;16.53;;
5428;SDS011;2737;52.386;9.980;2023-12-07T04:50:10;29.30;;;15.67;;
5428;SDS011;2737;52.386;9.980;2023-12-07T04:52:37;26.70;;;16.40;;
5428;SDS011;2737;52.386;9.980;2023-12-07T04:55:05;32.43;;;15.60;;
5428;SDS011;2737;52.386;9.980;2023-12-07T04:57:33;30.60;;;15.60;;
5428;SDS011;2737;52.386;9.980;2023-12-07T05:00:00;28.27;;;15.73;;
5428;SDS011;2737;52.386;9.980;2023-12-07T05:02:32;28.07;;;16.03;;
5428;SDS011;2737;52.386;9.980;2023-12-07T05:04:59;27.77;;;15.87;;
5428;SDS011;2737;52.386;9.980;2023-12-07T05:07:26;29.80;;;15.63;;
5428;SDS011;2737;52.386;9.980;2023-12-07T05:09:53;25.33;;;15.30;;
5428;SDS011;2737;52.386;9.980;2023-12-07T05:12:20;26.57;;;15.67;;
5428;SDS011;2737;52.386;9.980;2023-12-07T05:14:47;25.60;;;14.90;;
5428;SDS011;2737;52.386;9.980;2023-12-07T05:17:15;27.90;;;15.30;;
5428;SDS011;2737;52.386;9.980;2023-12-07T05:19:45;29.00;;;16.13;;
5428;SDS011;2737;52.386;9.980;2023-12-07T05:22:12;34.53;;;15.27;;
5428;SDS011;2737;52.386;9.980;2023-12-07T05:24:40;32.20;;;14.83;;
5428;SDS011;2737;52.386;9.980;2023-12-07T05:27:07;36.87;;;16.83;;
5428;SDS011;2737;52.386;9.980;2023-12-07T05:29:35;44.53;;;15.30;;
5428;SDS011;2737;52.386;9.980;2023-12-07T05:32:02;36.23;;;16.90;;
5428;SDS011;2737;52.386;9.980;2023-12-07T05:34:29;29.40;;;15.03;;
5428;SDS011;2737;52.386;9.980;2023-12-07T05:36:57;27.23;;;14.67;;
5428;SDS011;2737;52.386;9.980;2023-12-07T05:39:24;27.67;;;15.50;;
5428;SDS011;2737;52.386;9.980;2023-12-07T05:41:51;23.67;;;14.33;;
5428;SDS011;2737;52.386;9.980;2023-12-07T05:44:18;28.30;;;15.53;;
5428;SDS011;2737;52.386;9.980;2023-12-07T05:46:47;31.13;;;14.90;;
5428;SDS011;2737;52.386;9.980;2023-12-07T05:49:14;28.53;;;15.40;;
5428;SDS011;2737;52.386;9.980;2023-12-07T05:51:41;28.50;;;15.00;;
5428;SDS011;2737;52.386;9.980;2023-12-07T05:54:10;29.13;;;15.30;;
5428;SDS011;2737;52.386;9.980;2023-12-07T05:56:37;35.67;;;14.60;;
5428;SDS011;2737;52.386;9.980;2023-12-07T05:59:04;26.97;;;14.90;;
5428;SDS011;2737;52.386;9.980;2023-12-07T06:01:31;26.00;;;14.60;;
5428;SDS011;2737;52.386;9.980;2023-12-07T06:03:58;25.60;;;14.77;;
5428;SDS011;2737;52.386;9.980;2023-12-07T06:06:25;27.20;;;14.57;;
5428;SDS011;2737;52.386;9.980;2023-12-07T06:08:52;24.20;;;13.10;;
5428;SDS011;2737;52.386;9.980;2023-12-07T06:11:20;28.93;;;16.17;;
5428;SDS011;2737;52.386;9.980;2023-12-07T06:13:47;30.90;;;14.90;;
5428;SDS011;2737;52.386;9.980;2023-12-07T06:16:14;28.10;;;14.50;;
5428;SDS011;2737;52.386;9.980;2023-12-07T06:18:42;24.90;;;14.20;;
5428;SDS011;2737;52.386;9.980;2023-12-07T06:21:09;28.03;;;14.30;;
5428;SDS011;2737;52.386;9.980;2023-12-07T06:23:37;30.97;;;13.70;;
5428;SDS011;2737;52.386;9.980;2023-12-07T06:26:04;30.53;;;14.70;;
5428;SDS011;2737;52.386;9.980;2023-12-07T06:28:33;25.90;;;14.47;;
5428;SDS011;2737;52.386;9.980;2023-12-07T06:31:04;28.03;;;14.47;;
5428;SDS011;2737;52.386;9.980;2023-12-07T06:33:33;31.70;;;15.10;;
5428;SDS011;2737;52.386;9.980;2023-12-07T06:36:00;39.33;;;13.27;;
5428;SDS011;2737;52.386;9.980;2023-12-07T06:38:28;28.27;;;13.50;;
5428;SDS011;2737;52.386;9.980;2023-12-07T06:40:55;26.53;;;13.40;;
5428;SDS011;2737;52.386;9.980;2023-12-07T06:43:22;28.63;;;13.80;;
5428;SDS011;2737;52.386;9.980;2023-12-07T06:45:51;24.33;;;13.70;;
5428;SDS011;2737;52.386;9.980;2023-12-07T06:48:18;32.20;;;14.80;;
5428;SDS011;2737;52.386;9.980;2023-12-07T06:50:45;24.87;;;13.23;;
5428;SDS011;2737;52.386;9.980;2023-12-07T06:53:13;23.87;;;12.33;;
5428;SDS011;2737;52.386;9.980;2023-12-07T06:55:41;25.87;;;13.47;;
5428;SDS011;2737;52.386;9.980;2023-12-07T06:58:08;27.80;;;13.93;;
5428;SDS011;2737;52.386;9.980;2023-12-07T07:00:36;26.00;;;14.27;;
5428;SDS011;2737;52.386;9.980;2023-12-07T07:03:04;32.33;;;13.30;;
5428;SDS011;2737;52.386;9.980;2023-12-07T07:05:32;28.40;;;14.40;;
5428;SDS011;2737;52.386;9.980;2023-12-07T07:07:59;22.90;;;13.17;;
5428;SDS011;2737;52.386;9.980;2023-12-07T07:10:26;26.47;;;14.73;;
5428;SDS011;2737;52.386;9.980;2023-12-07T07:12:53;23.60;;;13.00;;
5428;SDS011;2737;52.386;9.980;2023-12-07T07:15:20;25.60;;;13.80;;
5428;SDS011;2737;52.386;9.980;2023-12-07T07:17:48;28.60;;;14.20;;
5428;SDS011;2737;52.386;9.980;2023-12-07T07:20:16;23.07;;;12.77;;
5428;SDS011;2737;52.386;9.980;2023-12-07T07:22:44;25.53;;;14.00;;
5428;SDS011;2737;52.386;9.980;2023-12-07T07:25:11;28.67;;;14.13;;
5428;SDS011;2737;52.386;9.980;2023-12-07T07:27:40;26.40;;;15.00;;
5428;SDS011;2737;52.386;9.980;2023-12-07T07:30:07;30.03;;;15.00;;
5428;SDS011;2737;52.386;9.980;2023-12-07T07:32:35;32.93;;;14.40;;
5428;SDS011;2737;52.386;9.980;2023-12-07T07:35:02;28.80;;;14.63;;
5428;SDS011;2737;52.386;9.980;2023-12-07T07:37:30;26.83;;;14.37;;
5428;SDS011;2737;52.386;9.980;2023-12-07T07:39:57;32.17;;;14.17;;
5428;SDS011;2737;52.386;9.980;2023-12-07T07:42:25;45.57;;;17.40;;
5428;SDS011;2737;52.386;9.980;2023-12-07T07:44:52;34.60;;;15.17;;
5428;SDS011;2737;52.386;9.980;2023-12-07T07:47:19;29.27;;;12.80;;
5428;SDS011;2737;52.386;9.980;2023-12-07T07:49:46;31.43;;;13.80;;
5428;SDS011;2737;52.386;9.980;2023-12-07T07:52:14;32.80;;;13.90;;
5428;SDS011;2737;52.386;9.980;2023-12-07T07:54:42;23.83;;;13.50;;
5428;SDS011;2737;52.386;9.980;2023-12-07T07:57:09;28.87;;;14.70;;
5428;SDS011;2737;52.386;9.980;2023-12-07T07:59:36;28.37;;;13.90;;
5428;SDS011;2737;52.386;9.980;2023-12-07T08:02:04;26.40;;;14.10;;
5428;SDS011;2737;52.386;9.980;2023-12-07T08:04:31;33.30;;;15.10;;
5428;SDS011;2737;52.386;9.980;2023-12-07T08:06:58;29.77;;;14.67;;
5428;SDS011;2737;52.386;9.980;2023-12-07T08:09:25;31.20;;;13.90;;
5428;SDS011;2737;52.386;9.980;2023-12-07T08:11:53;31.07;;;14.83;;
5428;SDS011;2737;52.386;9.980;2023-12-07T08:14:20;30.37;;;14.67;;
5428;SDS011;2737;52.386;9.980;2023-12-07T08:16:47;34.43;;;15.00;;
5428;SDS011;2737;52.386;9.980;2023-12-07T08:19:14;31.83;;;16.13;;
5428;SDS011;2737;52.386;9.980;2023-12-07T08:21:41;31.40;;;15.00;;
5428;SDS011;2737;52.386;9.980;2023-12-07T08:24:07;30.17;;;15.00;;
5428;SDS011;2737;52.386;9.980;2023-12-07T08:26:34;30.63;;;14.73;;
5428;SDS011;2737;52.386;9.980;2023-12-07T08:29:02;30.97;;;15.63;;
5428;SDS011;2737;52.386;9.980;2023-12-07T08:31:30;29.10;;;14.87;;
5428;SDS011;2737;52.386;9.980;2023-12-07T08:33:57;27.60;;;14.50;;
5428;SDS011;2737;52.386;9.980;2023-12-07T08:36:25;28.50;;;15.43;;
5428;SDS011;2737;52.386;9.980;2023-12-07T08:38:53;28.20;;;15.87;;
5428;SDS011;2737;52.386;9.980;2023-12-07T08:41:20;28.40;;;14.80;;
5428;SDS011;2737;52.386;9.980;2023-12-07T08:43:47;34.77;;;17.10;;
5428;SDS011;2737;52.386;9.980;2023-12-07T08:46:15;29.40;;;16.27;;
5428;SDS011;2737;52.386;9.980;2023-12-07T08:48:42;32.20;;;17.60;;
5428;SDS011;2737;52.386;9.980;2023-12-07T08:51:09;31.23;;;16.20;;
5428;SDS011;2737;52.386;9.980;2023-12-07T08:53:37;30.73;;;16.23;;
5428;SDS011;2737;52.386;9.980;2023-12-07T08:56:04;28.33;;;16.07;;
5428;SDS011;2737;52.386;9.980;2023-12-07T08:58:32;31.53;;;16.60;;
5428;SDS011;2737;52.386;9.980;2023-12-07T09:00:59;40.63;;;17.07;;
5428;SDS011;2737;52.386;9.980;2023-12-07T09:03:27;30.87;;;17.00;;
5428;SDS011;2737;52.386;9.980;2023-12-07T09:05:56;31.30;;;14.73;;
5428;SDS011;2737;52.386;9.980;2023-12-07T09:08:24;33.47;;;14.97;;
5428;SDS011;2737;52.386;9.980;2023-12-07T09:10:51;31.13;;;15.70;;
5428;SDS011;2737;52.386;9.980;2023-12-07T09:13:18;26.97;;;15.53;;
5428;SDS011;2737;52.386;9.980;2023-12-07T09:15:45;33.53;;;16.37;;
5428;SDS011;2737;52.386;9.980;2023-12-07T09:18:12;32.37;;;16.67;;
5428;SDS011;2737;52.386;9.980;2023-12-07T09:20:40;28.77;;;16.20;;
5428;SDS011;2737;52.386;9.980;2023-12-07T09:23:11;35.57;;;16.13;;
5428;SDS011;2737;52.386;9.980;2023-12-07T09:25:40;28.77;;;14.97;;
5428;SDS011;2737;52.386;9.980;2023-12-07T09:28:07;30.20;;;16.10;;
5428;SDS011;2737;52.386;9.980;2023-12-07T09:30:35;34.03;;;16.57;;
5428;SDS011;2737;52.386;9.980;2023-12-07T09:33:02;38.50;;;16.80;;
5428;SDS011;2737;52.386;9.980;2023-12-07T09:35:29;32.50;;;16.37;;
5428;SDS011;2737;52.386;9.980;2023-12-07T09:38:00;36.00;;;16.20;;
5428;SDS011;2737;52.386;9.980;2023-12-07T09:40:27;33.60;;;16.67;;
5428;SDS011;2737;52.386;9.980;2023-12-07T09:42:55;30.10;;;15.77;;
5428;SDS011;2737;52.386;9.980;2023-12-07T09:45:22;27.23;;;15.37;;
5428;SDS011;2737;52.386;9.980;2023-12-07T09:47:50;27.27;;;16.67;;
5428;SDS011;2737;52.386;9.980;2023-12-07T09:50:18;34.53;;;17.03;;
5428;SDS011;2737;52.386;9.980;2023-12-07T09:52:47;36.30;;;17.33;;
5428;SDS011;2737;52.386;9.980;2023-12-07T09:55:17;33.17;;;16.17;;
5428;SDS011;2737;52.386;9.980;2023-12-07T09:57:45;35.50;;;15.67;;
5428;SDS011;2737;52.386;9.980;2023-12-07T10:00:12;31.40;;;16.37;;
5428;SDS011;2737;52.386;9.980;2023-12-07T10:02:41;36.27;;;17.73;;
5428;SDS011;2737;52.386;9.980;2023-12-07T10:05:09;39.70;;;17.80;;
5428;SDS011;2737;52.386;9.980;2023-12-07T10:07:39;33.80;;;17.10;;
5428;SDS011;2737;52.386;9.980;2023-12-07T10:10:08;28.80;;;15.37;;
5428;SDS011;2737;52.386;9.980;2023-12-07T10:12:44;31.90;;;16.70;;
5428;SDS011;2737;52.386;9.980;2023-12-07T10:15:13;33.00;;;15.83;;
5428;SDS011;2737;52.386;9.980;2023-12-07T10:17:45;46.00;;;17.50;;
5428;SDS011;2737;52.386;9.980;2023-12-07T10:20:15;33.27;;;16.77;;
5428;SDS011;2737;52.386;9.980;2023-12-07T10:22:46;29.00;;;16.23;;
5428;SDS011;2737;52.386;9.980;2023-12-07T10:25:20;29.20;;;14.97;;
5428;SDS011;2737;52.386;9.980;2023-12-07T10:27:49;33.43;;;15.40;;
5428;SDS011;2737;52.386;9.980;2023-12-07T10:30:16;36.93;;;16.97;;
5428;SDS011;2737;52.386;9.980;2023-12-07T10:32:50;42.77;;;16.10;;
5428;SDS011;2737;52.386;9.980;2023-12-07T10:35:18;27.60;;;15.70;;
5428;SDS011;2737;52.386;9.980;2023-12-07T10:37:45;29.90;;;14.60;;
5428;SDS011;2737;52.386;9.980;2023-12-07T10:40:13;29.90;;;15.43;;
5428;SDS011;2737;52.386;9.980;2023-12-07T10:42:41;30.33;;;15.57;;
5428;SDS011;2737;52.386;9.980;2023-12-07T10:45:15;29.23;;;14.70;;
5428;SDS011;2737;52.386;9.980;2023-12-07T10:47:43;27.70;;;16.10;;
5428;SDS011;2737;52.386;9.980;2023-12-07T10:50:13;26.70;;;14.20;;
5428;SDS011;2737;52.386;9.980;2023-12-07T10:52:48;30.43;;;16.17;;
5428;SDS011;2737;52.386;9.980;2023-12-07T10:55:20;30.77;;;15.10;;
5428;SDS011;2737;52.386;9.980;2023-12-07T10:57:49;35.90;;;15.63;;
5428;SDS011;2737;52.386;9.980;2023-12-07T11:00:20;35.40;;;15.00;;
5428;SDS011;2737;52.386;9.980;2023-12-07T11:02:49;31.37;;;14.53;;
5428;SDS011;2737;52.386;9.980;2023-12-07T11:05:18;33.87;;;15.50;;
5428;SDS011;2737;52.386;9.980;2023-12-07T11:07:48;30.57;;;15.17;;
5428;SDS011;2737;52.386;9.980;2023-12-07T11:10:20;35.30;;;14.37;;
5428;SDS011;2737;52.386;9.980;2023-12-07T11:12:56;28.17;;;14.20;;
5428;SDS011;2737;52.386;9.980;2023-12-07T11:15:36;28.13;;;13.27;;
5428;SDS011;2737;52.386;9.980;2023-12-07T11:18:04;32.90;;;14.73;;
5428;SDS011;2737;52.386;9.980;2023-12-07T11:20:34;28.70;;;14.53;;
5428;SDS011;2737;52.386;9.980;2023-12-07T11:23:06;32.13;;;14.90;;
5428;SDS011;2737;52.386;9.980;2023-12-07T11:25:34;29.00;;;14.60;;
5428;SDS011;2737;52.386;9.980;2023-12-07T11:28:01;42.87;;;15.60;;
5428;SDS011;2737;52.386;9.980;2023-12-07T11:30:30;32.73;;;14.57;;
5428;SDS011;2737;52.386;9.980;2023-12-07T11:33:00;26.30;;;14.63;;
5428;SDS011;2737;52.386;9.980;2023-12-07T11:35:29;32.47;;;14.30;;
5428;SDS011;2737;52.386;9.980;2023-12-07T11:38:03;26.20;;;13.87;;
5428;SDS011;2737;52.386;9.980;2023-12-07T11:40:31;29.00;;;14.53;;
5428;SDS011;2737;52.386;9.980;2023-12-07T11:43:00;25.13;;;13.30;;
5428;SDS011;2737;52.386;9.980;2023-12-07T11:45:39;26.27;;;13.17;;
5428;SDS011;2737;52.386;9.980;2023-12-07T11:48:13;26.80;;;13.93;;
5428;SDS011;2737;52.386;9.980;2023-12-07T11:50:53;26.90;;;13.77;;
5428;SDS011;2737;52.386;9.980;2023-12-07T11:53:22;23.10;;;12.03;;
5428;SDS011;2737;52.386;9.980;2023-12-07T11:55:50;30.30;;;15.60;;
5428;SDS011;2737;52.386;9.980;2023-12-07T11:58:17;27.20;;;13.97;;
5428;SDS011;2737;52.386;9.980;2023-12-07T12:00:45;23.50;;;13.20;;
5428;SDS011;2737;52.386;9.980;2023-12-07T12:03:14;22.33;;;13.50;;
5428;SDS011;2737;52.386;9.980;2023-12-07T12:05:41;22.87;;;12.57;;
5428;SDS011;2737;52.386;9.980;2023-12-07T12:08:09;24.80;;;12.90;;
5428;SDS011;2737;52.386;9.980;2023-12-07T12:10:36;25.77;;;13.70;;
5428;SDS011;2737;52.386;9.980;2023-12-07T12:13:04;25.97;;;13.97;;
5428;SDS011;2737;52.386;9.980;2023-12-07T12:15:31;27.40;;;13.67;;
5428;SDS011;2737;52.386;9.980;2023-12-07T12:17:59;22.87;;;12.37;;
5428;SDS011;2737;52.386;9.980;2023-12-07T12:20:29;27.83;;;14.63;;
5428;SDS011;2737;52.386;9.980;2023-12-07T12:22:56;31.37;;;15.00;;
5428;SDS011;2737;52.386;9.980;2023-12-07T12:25:24;26.27;;;14.10;;
5428;SDS011;2737;52.386;9.980;2023-12-07T12:27:53;31.70;;;15.50;;
5428;SDS011;2737;52.386;9.980;2023-12-07T12:30:21;28.00;;;14.97;;
5428;SDS011;2737;52.386;9.980;2023-12-07T12:32:50;30.40;;;15.97;;
5428;SDS011;2737;52.386;9.980;2023-12-07T12:35:17;25.90;;;13.53;;
5428;SDS011;2737;52.386;9.980;2023-12-07T12:37:46;26.57;;;12.80;;
5428;SDS011;2737;52.386;9.980;2023-12-07T12:40:14;28.80;;;15.00;;
5428;SDS011;2737;52.386;9.980;2023-12-07T12:42:43;29.20;;;14.00;;
5428;SDS011;2737;52.386;9.980;2023-12-07T12:45:12;27.17;;;13.00;;
5428;SDS011;2737;52.386;9.980;2023-12-07T12:47:40;24.77;;;14.13;;
5428;SDS011;2737;52.386;9.980;2023-12-07T12:50:08;29.67;;;15.63;;
5428;SDS011;2737;52.386;9.980;2023-12-07T12:52:36;29.80;;;15.23;;
5428;SDS011;2737;52.386;9.980;2023-12-07T12:55:08;25.10;;;12.00;;
5428;SDS011;2737;52.386;9.980;2023-12-07T12:57:36;28.60;;;13.80;;
5428;SDS011;2737;52.386;9.980;2023-12-07T13:00:04;27.40;;;14.03;;
5428;SDS011;2737;52.386;9.980;2023-12-07T13:02:33;26.70;;;13.83;;
5428;SDS011;2737;52.386;9.980;2023-12-07T13:05:00;23.97;;;13.47;;
5428;SDS011;2737;52.386;9.980;2023-12-07T13:07:27;34.07;;;13.33;;
5428;SDS011;2737;52.386;9.980;2023-12-07T13:09:54;25.13;;;14.20;;
5428;SDS011;2737;52.386;9.980;2023-12-07T13:12:23;29.77;;;13.80;;
5428;SDS011;2737;52.386;9.980;2023-12-07T13:14:53;27.20;;;13.33;;
5428;SDS011;2737;52.386;9.980;2023-12-07T13:17:21;25.40;;;13.70;;
5428;SDS011;2737;52.386;9.980;2023-12-07T13:19:49;28.70;;;13.80;;
5428;SDS011;2737;52.386;9.980;2023-12-07T13:22:16;26.10;;;12.70;;
5428;SDS011;2737;52.386;9.980;2023-12-07T13:24:43;30.27;;;14.17;;
5428;SDS011;2737;52.386;9.980;2023-12-07T13:27:11;26.00;;;13.07;;
5428;SDS011;2737;52.386;9.980;2023-12-07T13:29:42;28.50;;;14.33;;
5428;SDS011;2737;52.386;9.980;2023-12-07T13:32:09;28.87;;;13.93;;
5428;SDS011;2737;52.386;9.980;2023-12-07T13:34:37;26.53;;;14.20;;
5428;SDS011;2737;52.386;9.980;2023-12-07T13:37:04;27.43;;;13.03;;
5428;SDS011;2737;52.386;9.980;2023-12-07T13:39:32;29.53;;;15.03;;
5428;SDS011;2737;52.386;9.980;2023-12-07T13:41:59;27.63;;;14.00;;
5428;SDS011;2737;52.386;9.980;2023-12-07T13:44:26;29.20;;;16.00;;
5428;SDS011;2737;52.386;9.980;2023-12-07T13:46:54;27.00;;;13.77;;
5428;SDS011;2737;52.386;9.980;2023-12-07T13:49:21;27.73;;;13.13;;
5428;SDS011;2737;52.386;9.980;2023-12-07T13:51:48;24.57;;;13.50;;
5428;SDS011;2737;52.386;9.980;2023-12-07T13:54:15;25.80;;;14.20;;
5428;SDS011;2737;52.386;9.980;2023-12-07T13:56:42;29.03;;;14.60;;
5428;SDS011;2737;52.386;9.980;2023-12-07T13:59:09;28.70;;;14.87;;
5428;SDS011;2737;52.386;9.980;2023-12-07T14:01:38;50.77;;;29.00;;
5428;SDS011;2737;52.386;9.980;2023-12-07T14:04:06;35.10;;;20.20;;
5428;SDS011;2737;52.386;9.980;2023-12-07T14:06:33;25.60;;;14.30;;
5428;SDS011;2737;52.386;9.980;2023-12-07T14:09:01;29.03;;;16.17;;
5428;SDS011;2737;52.386;9.980;2023-12-07T14:11:28;29.47;;;16.40;;
5428;SDS011;2737;52.386;9.980;2023-12-07T14:13:55;30.30;;;16.20;;
5428;SDS011;2737;52.386;9.980;2023-12-07T14:16:22;32.67;;;15.90;;
5428;SDS011;2737;52.386;9.980;2023-12-07T14:18:49;36.60;;;17.67;;
5428;SDS011;2737;52.386;9.980;2023-12-07T14:21:20;37.27;;;16.03;;
5428;SDS011;2737;52.386;9.980;2023-12-07T14:23:47;30.83;;;15.30;;
5428;SDS011;2737;52.386;9.980;2023-12-07T14:26:14;29.00;;;15.23;;
5428;SDS011;2737;52.386;9.980;2023-12-07T14:28:41;29.13;;;15.50;;
5428;SDS011;2737;52.386;9.980;2023-12-07T14:31:08;31.30;;;16.13;;
5428;SDS011;2737;52.386;9.980;2023-12-07T14:33:41;37.93;;;18.43;;
5428;SDS011;2737;52.386;9.980;2023-12-07T14:36:09;36.50;;;19.03;;
5428;SDS011;2737;52.386;9.980;2023-12-07T14:38:38;35.50;;;15.57;;
5428;SDS011;2737;52.386;9.980;2023-12-07T14:41:06;25.90;;;14.53;;
5428;SDS011;2737;52.386;9.980;2023-12-07T14:43:33;31.37;;;17.27;;
5428;SDS011;2737;52.386;9.980;2023-12-07T14:46:00;34.40;;;15.57;;
5428;SDS011;2737;52.386;9.980;2023-12-07T14:48:28;36.33;;;18.10;;
5428;SDS011;2737;52.386;9.980;2023-12-07T14:50:55;33.27;;;15.10;;
5428;SDS011;2737;52.386;9.980;2023-12-07T14:53:22;31.47;;;16.43;;